sensor_id;sensor_type;location;lat;lon;timestamp;temperature;humidity
12438;DHT22;6283;51.330;12.374;2022-10-22T00:01:22;14.40;1.00
12438;DHT22;6283;51.330;12.374;2022-10-22T00:03:49;14.70;1.00
12438;DHT22;6283;51.330;12.374;2022-10-22T00:06:14;14.60;1.00
12438;DHT22;6283;51.330;12.374;2022-10-22T00:08:40;14.50;1.00
12438;DHT22;6283;51.330;12.374;2022-10-22T00:11:13;14.20;1.00
12438;DHT22;6283;51.330;12.374;2022-10-22T00:13:40;14.40;1.00
12438;DHT22;6283;51.330;12.374;2022-10-22T00:16:05;14.30;1.00
12438;DHT22;6283;51.330;12.374;2022-10-22T00:18:31;14.40;1.00
12438;DHT22;6283;51.330;12.374;2022-10-22T00:20:57;14.20;1.00
12438;DHT22;6283;51.330;12.374;2022-10-22T00:23:23;14.40;1.00
12438;DHT22;6283;51.330;12.374;2022-10-22T00:25:48;14.30;1.00
12438;DHT22;6283;51.330;12.374;2022-10-22T00:28:14;14.40;1.00
12438;DHT22;6283;51.330;12.374;2022-10-22T00:30:40;14.30;1.00
12438;DHT22;6283;51.330;12.374;2022-10-22T00:33:05;14.40;1.00
12438;DHT22;6283;51.330;12.374;2022-10-22T00:35:31;14.50;1.00
12438;DHT22;6283;51.330;12.374;2022-10-22T00:37:57;14.40;1.00
12438;DHT22;6283;51.330;12.374;2022-10-22T00:40:23;14.70;1.00
12438;DHT22;6283;51.330;12.374;2022-10-22T00:42:49;14.40;1.00
12438;DHT22;6283;51.330;12.374;2022-10-22T00:45:21;14.60;1.00
12438;DHT22;6283;51.330;12.374;2022-10-22T00:50:20;14.40;1.00
12438;DHT22;6283;51.330;12.374;2022-10-22T00:52:48;14.40;1.00
12438;DHT22;6283;51.330;12.374;2022-10-22T00:55:14;14.60;1.00
12438;DHT22;6283;51.330;12.374;2022-10-22T00:57:40;14.30;1.00
12438;DHT22;6283;51.330;12.374;2022-10-22T01:00:07;14.60;1.00
12438;DHT22;6283;51.330;12.374;2022-10-22T01:02:33;14.50;1.00
12438;DHT22;6283;51.330;12.374;2022-10-22T01:04:59;14.50;1.00
12438;DHT22;6283;51.330;12.374;2022-10-22T01:07:24;14.40;1.00
12438;DHT22;6283;51.330;12.374;2022-10-22T01:15:21;14.30;1.00
12438;DHT22;6283;51.330;12.374;2022-10-22T01:18:03;14.50;1.00
12438;DHT22;6283;51.330;12.374;2022-10-22T01:20:58;14.40;1.00
12438;DHT22;6283;51.330;12.374;2022-10-22T01:24:03;14.50;1.00
12438;DHT22;6283;51.330;12.374;2022-10-22T01:29:18;14.40;1.00
12438;DHT22;6283;51.330;12.374;2022-10-22T01:31:52;14.40;1.00
12438;DHT22;6283;51.330;12.374;2022-10-22T01:34:19;14.50;1.00
12438;DHT22;6283;51.330;12.374;2022-10-22T01:36:47;14.60;1.00
12438;DHT22;6283;51.330;12.374;2022-10-22T01:39:14;14.70;1.00
12438;DHT22;6283;51.330;12.374;2022-10-22T01:41:43;14.60;1.00
12438;DHT22;6283;51.330;12.374;2022-10-22T01:44:30;14.40;1.00
12438;DHT22;6283;51.330;12.374;2022-10-22T01:52:29;14.50;1.00
12438;DHT22;6283;51.330;12.374;2022-10-22T01:58:00;14.30;1.00
12438;DHT22;6283;51.330;12.374;2022-10-22T02:00:27;14.40;1.00
12438;DHT22;6283;51.330;12.374;2022-10-22T02:03:11;14.40;1.00
12438;DHT22;6283;51.330;12.374;2022-10-22T02:05:45;14.50;1.00
12438;DHT22;6283;51.330;12.374;2022-10-22T02:08:16;14.40;1.00
12438;DHT22;6283;51.330;12.374;2022-10-22T02:10:44;14.40;1.00
12438;DHT22;6283;51.330;12.374;2022-10-22T02:13:23;14.40;1.00
12438;DHT22;6283;51.330;12.374;2022-10-22T02:15:51;14.40;1.00
12438;DHT22;6283;51.330;12.374;2022-10-22T02:18:19;14.50;1.00
12438;DHT22;6283;51.330;12.374;2022-10-22T02:20:47;14.50;1.00
12438;DHT22;6283;51.330;12.374;2022-10-22T02:23:13;14.40;1.00
12438;DHT22;6283;51.330;12.374;2022-10-22T02:25:42;14.50;1.00
12438;DHT22;6283;51.330;12.374;2022-10-22T02:28:21;14.40;1.00
12438;DHT22;6283;51.330;12.374;2022-10-22T02:30:53;14.30;1.00
12438;DHT22;6283;51.330;12.374;2022-10-22T02:33:28;14.30;1.00
12438;DHT22;6283;51.330;12.374;2022-10-22T02:35:57;14.30;1.00
12438;DHT22;6283;51.330;12.374;2022-10-22T02:38:25;14.30;1.00
12438;DHT22;6283;51.330;12.374;2022-10-22T02:40:51;14.40;1.00
12438;DHT22;6283;51.330;12.374;2022-10-22T02:43:17;14.50;1.00
12438;DHT22;6283;51.330;12.374;2022-10-22T02:45:44;14.50;1.00
12438;DHT22;6283;51.330;12.374;2022-10-22T02:48:10;14.20;1.00
12438;DHT22;6283;51.330;12.374;2022-10-22T02:50:35;14.40;1.00
12438;DHT22;6283;51.330;12.374;2022-10-22T02:53:01;14.30;1.00
12438;DHT22;6283;51.330;12.374;2022-10-22T02:55:27;14.20;1.00
12438;DHT22;6283;51.330;12.374;2022-10-22T02:57:52;14.20;1.00
12438;DHT22;6283;51.330;12.374;2022-10-22T03:00:18;14.10;1.00
12438;DHT22;6283;51.330;12.374;2022-10-22T03:02:43;14.40;1.00
12438;DHT22;6283;51.330;12.374;2022-10-22T03:05:09;14.20;1.00
12438;DHT22;6283;51.330;12.374;2022-10-22T03:07:35;14.40;1.00
12438;DHT22;6283;51.330;12.374;2022-10-22T03:10:00;14.40;1.00
12438;DHT22;6283;51.330;12.374;2022-10-22T03:12:26;14.10;1.00
12438;DHT22;6283;51.330;12.374;2022-10-22T03:14:51;14.10;1.00
12438;DHT22;6283;51.330;12.374;2022-10-22T03:17:17;14.20;1.00
12438;DHT22;6283;51.330;12.374;2022-10-22T03:19:42;14.30;1.00
12438;DHT22;6283;51.330;12.374;2022-10-22T03:22:16;14.20;1.00
12438;DHT22;6283;51.330;12.374;2022-10-22T03:24:47;14.00;1.00
12438;DHT22;6283;51.330;12.374;2022-10-22T03:27:16;14.20;1.00
12438;DHT22;6283;51.330;12.374;2022-10-22T03:29:43;14.10;1.00
12438;DHT22;6283;51.330;12.374;2022-10-22T03:32:09;14.00;1.00
12438;DHT22;6283;51.330;12.374;2022-10-22T03:34:34;14.10;1.00
12438;DHT22;6283;51.330;12.374;2022-10-22T03:37:00;14.10;1.00
12438;DHT22;6283;51.330;12.374;2022-10-22T03:39:28;14.30;1.00
12438;DHT22;6283;51.330;12.374;2022-10-22T03:41:55;14.10;1.00
12438;DHT22;6283;51.330;12.374;2022-10-22T03:44:21;14.00;1.00
12438;DHT22;6283;51.330;12.374;2022-10-22T03:46:47;14.10;1.00
12438;DHT22;6283;51.330;12.374;2022-10-22T03:49:12;14.10;1.00
12438;DHT22;6283;51.330;12.374;2022-10-22T03:51:38;14.20;1.00
12438;DHT22;6283;51.330;12.374;2022-10-22T03:54:04;14.20;1.00
12438;DHT22;6283;51.330;12.374;2022-10-22T03:56:29;14.10;1.00
12438;DHT22;6283;51.330;12.374;2022-10-22T03:58:56;14.00;1.00
12438;DHT22;6283;51.330;12.374;2022-10-22T04:01:22;14.10;1.00
12438;DHT22;6283;51.330;12.374;2022-10-22T04:03:48;14.30;1.00
12438;DHT22;6283;51.330;12.374;2022-10-22T04:06:13;14.00;1.00
12438;DHT22;6283;51.330;12.374;2022-10-22T04:08:41;14.10;1.00
12438;DHT22;6283;51.330;12.374;2022-10-22T04:11:07;14.00;1.00
12438;DHT22;6283;51.330;12.374;2022-10-22T04:13:33;14.00;1.00
12438;DHT22;6283;51.330;12.374;2022-10-22T04:16:25;14.20;1.00
12438;DHT22;6283;51.330;12.374;2022-10-22T04:18:55;14.20;1.00
12438;DHT22;6283;51.330;12.374;2022-10-22T04:21:21;14.00;1.00
12438;DHT22;6283;51.330;12.374;2022-10-22T04:23:49;14.10;1.00
12438;DHT22;6283;51.330;12.374;2022-10-22T04:26:16;13.90;1.00
12438;DHT22;6283;51.330;12.374;2022-10-22T04:28:42;14.00;1.00
12438;DHT22;6283;51.330;12.374;2022-10-22T04:31:09;13.80;1.00
12438;DHT22;6283;51.330;12.374;2022-10-22T04:33:35;13.90;1.00
12438;DHT22;6283;51.330;12.374;2022-10-22T04:36:09;13.90;1.00
12438;DHT22;6283;51.330;12.374;2022-10-22T04:38:36;14.10;1.00
12438;DHT22;6283;51.330;12.374;2022-10-22T04:43:38;14.00;1.00
12438;DHT22;6283;51.330;12.374;2022-10-22T04:46:04;13.80;1.00
12438;DHT22;6283;51.330;12.374;2022-10-22T04:48:29;13.80;1.00
12438;DHT22;6283;51.330;12.374;2022-10-22T04:50:57;14.00;1.00
12438;DHT22;6283;51.330;12.374;2022-10-22T04:53:23;14.00;1.00
12438;DHT22;6283;51.330;12.374;2022-10-22T04:55:48;13.90;1.00
12438;DHT22;6283;51.330;12.374;2022-10-22T04:58:14;14.00;1.00
12438;DHT22;6283;51.330;12.374;2022-10-22T05:00:40;13.80;1.00
12438;DHT22;6283;51.330;12.374;2022-10-22T05:03:05;14.10;1.00
12438;DHT22;6283;51.330;12.374;2022-10-22T05:05:31;14.00;1.00
12438;DHT22;6283;51.330;12.374;2022-10-22T05:07:57;13.90;1.00
12438;DHT22;6283;51.330;12.374;2022-10-22T05:10:22;14.00;1.00
12438;DHT22;6283;51.330;12.374;2022-10-22T05:12:48;14.20;1.00
12438;DHT22;6283;51.330;12.374;2022-10-22T05:15:13;14.00;1.00
12438;DHT22;6283;51.330;12.374;2022-10-22T05:17:39;14.10;1.00
12438;DHT22;6283;51.330;12.374;2022-10-22T05:20:05;14.20;1.00
12438;DHT22;6283;51.330;12.374;2022-10-22T05:22:32;14.10;1.00
12438;DHT22;6283;51.330;12.374;2022-10-22T05:24:59;14.10;1.00
12438;DHT22;6283;51.330;12.374;2022-10-22T05:27:24;14.30;1.00
12438;DHT22;6283;51.330;12.374;2022-10-22T05:29:50;14.20;1.00
12438;DHT22;6283;51.330;12.374;2022-10-22T05:32:16;14.00;1.00
12438;DHT22;6283;51.330;12.374;2022-10-22T05:34:41;14.20;1.00
12438;DHT22;6283;51.330;12.374;2022-10-22T05:37:07;14.10;1.00
12438;DHT22;6283;51.330;12.374;2022-10-22T05:39:32;14.30;1.00
12438;DHT22;6283;51.330;12.374;2022-10-22T05:42:01;14.20;1.00
12438;DHT22;6283;51.330;12.374;2022-10-22T05:44:27;14.30;1.00
12438;DHT22;6283;51.330;12.374;2022-10-22T05:46:53;14.10;1.00
12438;DHT22;6283;51.330;12.374;2022-10-22T05:49:18;14.00;1.00
12438;DHT22;6283;51.330;12.374;2022-10-22T05:51:44;14.30;1.00
12438;DHT22;6283;51.330;12.374;2022-10-22T05:54:18;14.10;1.00
12438;DHT22;6283;51.330;12.374;2022-10-22T05:56:44;14.20;1.00
12438;DHT22;6283;51.330;12.374;2022-10-22T05:59:10;14.10;1.00
12438;DHT22;6283;51.330;12.374;2022-10-22T06:01:38;13.90;1.00
12438;DHT22;6283;51.330;12.374;2022-10-22T06:04:07;14.30;1.00
12438;DHT22;6283;51.330;12.374;2022-10-22T06:06:42;14.00;1.00
12438;DHT22;6283;51.330;12.374;2022-10-22T06:09:19;14.20;1.00
12438;DHT22;6283;51.330;12.374;2022-10-22T06:11:47;14.10;1.00
12438;DHT22;6283;51.330;12.374;2022-10-22T06:14:13;14.10;1.00
12438;DHT22;6283;51.330;12.374;2022-10-22T06:16:38;14.10;1.00
12438;DHT22;6283;51.330;12.374;2022-10-22T06:19:05;14.10;1.00
12438;DHT22;6283;51.330;12.374;2022-10-22T06:21:31;14.30;1.00
12438;DHT22;6283;51.330;12.374;2022-10-22T06:23:58;14.20;1.00
12438;DHT22;6283;51.330;12.374;2022-10-22T06:26:23;14.20;1.00
12438;DHT22;6283;51.330;12.374;2022-10-22T06:28:49;14.40;1.00
12438;DHT22;6283;51.330;12.374;2022-10-22T06:31:15;14.50;1.00
12438;DHT22;6283;51.330;12.374;2022-10-22T06:33:40;14.20;1.00
12438;DHT22;6283;51.330;12.374;2022-10-22T06:36:11;14.30;1.00
12438;DHT22;6283;51.330;12.374;2022-10-22T06:38:37;14.40;1.00
12438;DHT22;6283;51.330;12.374;2022-10-22T06:41:04;14.40;1.00
12438;DHT22;6283;51.330;12.374;2022-10-22T06:43:30;14.40;1.00
12438;DHT22;6283;51.330;12.374;2022-10-22T06:46:00;14.30;1.00
12438;DHT22;6283;51.330;12.374;2022-10-22T06:48:26;14.30;1.00
12438;DHT22;6283;51.330;12.374;2022-10-22T06:50:52;14.40;1.00
12438;DHT22;6283;51.330;12.374;2022-10-22T06:53:17;14.50;1.00
12438;DHT22;6283;51.330;12.374;2022-10-22T06:55:43;14.50;1.00
12438;DHT22;6283;51.330;12.374;2022-10-22T06:58:08;14.40;1.00
12438;DHT22;6283;51.330;12.374;2022-10-22T07:00:34;14.80;1.00
12438;DHT22;6283;51.330;12.374;2022-10-22T07:02:59;14.70;1.00
12438;DHT22;6283;51.330;12.374;2022-10-22T07:05:25;14.70;1.00
12438;DHT22;6283;51.330;12.374;2022-10-22T07:07:51;14.80;1.00
12438;DHT22;6283;51.330;12.374;2022-10-22T07:10:16;14.90;1.00
12438;DHT22;6283;51.330;12.374;2022-10-22T07:12:42;14.60;1.00
12438;DHT22;6283;51.330;12.374;2022-10-22T07:15:07;14.90;1.00
12438;DHT22;6283;51.330;12.374;2022-10-22T07:17:33;14.90;1.00
12438;DHT22;6283;51.330;12.374;2022-10-22T07:19:59;14.90;1.00
12438;DHT22;6283;51.330;12.374;2022-10-22T07:22:24;15.00;1.00
12438;DHT22;6283;51.330;12.374;2022-10-22T07:24:50;15.10;1.00
12438;DHT22;6283;51.330;12.374;2022-10-22T07:27:15;15.10;1.00
12438;DHT22;6283;51.330;12.374;2022-10-22T07:29:41;14.90;1.00
12438;DHT22;6283;51.330;12.374;2022-10-22T07:32:06;15.10;1.00
12438;DHT22;6283;51.330;12.374;2022-10-22T07:34:32;15.20;1.00
12438;DHT22;6283;51.330;12.374;2022-10-22T07:36:57;15.30;1.00
12438;DHT22;6283;51.330;12.374;2022-10-22T07:39:23;15.30;1.00
12438;DHT22;6283;51.330;12.374;2022-10-22T07:41:50;15.20;1.00
12438;DHT22;6283;51.330;12.374;2022-10-22T07:44:16;15.10;1.00
12438;DHT22;6283;51.330;12.374;2022-10-22T07:46:41;15.20;1.00
12438;DHT22;6283;51.330;12.374;2022-10-22T07:49:07;15.50;1.00
12438;DHT22;6283;51.330;12.374;2022-10-22T07:51:33;15.30;1.00
12438;DHT22;6283;51.330;12.374;2022-10-22T07:53:58;15.40;1.00
12438;DHT22;6283;51.330;12.374;2022-10-22T07:56:24;15.20;1.00
12438;DHT22;6283;51.330;12.374;2022-10-22T07:58:49;15.40;1.00
12438;DHT22;6283;51.330;12.374;2022-10-22T08:01:15;15.30;1.00
12438;DHT22;6283;51.330;12.374;2022-10-22T08:03:41;15.40;1.00
12438;DHT22;6283;51.330;12.374;2022-10-22T08:06:07;15.50;1.00
12438;DHT22;6283;51.330;12.374;2022-10-22T08:08:33;15.30;1.00
12438;DHT22;6283;51.330;12.374;2022-10-22T08:11:00;15.50;1.00
12438;DHT22;6283;51.330;12.374;2022-10-22T08:13:26;15.50;1.00
12438;DHT22;6283;51.330;12.374;2022-10-22T08:15:52;15.50;1.00
12438;DHT22;6283;51.330;12.374;2022-10-22T08:18:18;15.40;1.00
12438;DHT22;6283;51.330;12.374;2022-10-22T08:20:43;15.40;1.00
12438;DHT22;6283;51.330;12.374;2022-10-22T08:23:09;15.30;1.00
12438;DHT22;6283;51.330;12.374;2022-10-22T08:25:34;15.20;1.00
12438;DHT22;6283;51.330;12.374;2022-10-22T08:28:00;15.20;1.00
12438;DHT22;6283;51.330;12.374;2022-10-22T08:30:26;15.40;1.00
12438;DHT22;6283;51.330;12.374;2022-10-22T08:32:54;15.60;1.00
12438;DHT22;6283;51.330;12.374;2022-10-22T08:35:19;15.30;1.00
12438;DHT22;6283;51.330;12.374;2022-10-22T08:37:45;15.30;1.00
12438;DHT22;6283;51.330;12.374;2022-10-22T08:40:20;15.30;1.00
12438;DHT22;6283;51.330;12.374;2022-10-22T08:51:04;15.40;1.00
12438;DHT22;6283;51.330;12.374;2022-10-22T08:56:06;15.30;1.00
12438;DHT22;6283;51.330;12.374;2022-10-22T08:58:45;15.40;1.00
12438;DHT22;6283;51.330;12.374;2022-10-22T09:01:12;15.20;1.00
12438;DHT22;6283;51.330;12.374;2022-10-22T09:03:55;15.40;1.00
12438;DHT22;6283;51.330;12.374;2022-10-22T09:06:29;15.40;1.00
12438;DHT22;6283;51.330;12.374;2022-10-22T09:08:57;15.40;1.00
12438;DHT22;6283;51.330;12.374;2022-10-22T09:11:30;15.30;1.00
12438;DHT22;6283;51.330;12.374;2022-10-22T09:13:57;15.60;1.00
12438;DHT22;6283;51.330;12.374;2022-10-22T09:16:36;15.70;1.00
12438;DHT22;6283;51.330;12.374;2022-10-22T09:19:58;15.70;1.00
12438;DHT22;6283;51.330;12.374;2022-10-22T09:22:33;15.60;1.00
12438;DHT22;6283;51.330;12.374;2022-10-22T09:25:21;15.90;1.00
12438;DHT22;6283;51.330;12.374;2022-10-22T09:27:48;16.00;1.00
12438;DHT22;6283;51.330;12.374;2022-10-22T09:30:20;15.90;1.00
12438;DHT22;6283;51.330;12.374;2022-10-22T09:32:49;16.00;1.00
12438;DHT22;6283;51.330;12.374;2022-10-22T09:35:21;15.90;1.00
12438;DHT22;6283;51.330;12.374;2022-10-22T09:37:50;16.10;1.00
12438;DHT22;6283;51.330;12.374;2022-10-22T09:40:17;16.30;1.00
12438;DHT22;6283;51.330;12.374;2022-10-22T09:42:46;16.30;1.00
12438;DHT22;6283;51.330;12.374;2022-10-22T09:45:24;16.40;1.00
12438;DHT22;6283;51.330;12.374;2022-10-22T09:48:01;16.50;1.00
12438;DHT22;6283;51.330;12.374;2022-10-22T09:50:42;16.40;1.00
12438;DHT22;6283;51.330;12.374;2022-10-22T09:53:24;16.50;1.00
12438;DHT22;6283;51.330;12.374;2022-10-22T09:55:58;16.50;1.00
12438;DHT22;6283;51.330;12.374;2022-10-22T09:58:25;16.50;1.00
12438;DHT22;6283;51.330;12.374;2022-10-22T10:00:57;16.60;1.00
12438;DHT22;6283;51.330;12.374;2022-10-22T10:03:27;16.60;1.00
12438;DHT22;6283;51.330;12.374;2022-10-22T10:06:00;16.60;1.00
12438;DHT22;6283;51.330;12.374;2022-10-22T10:08:27;16.70;1.00
12438;DHT22;6283;51.330;12.374;2022-10-22T10:11:11;16.70;1.00
12438;DHT22;6283;51.330;12.374;2022-10-22T10:13:48;16.70;1.00
12438;DHT22;6283;51.330;12.374;2022-10-22T10:16:40;16.80;1.00
12438;DHT22;6283;51.330;12.374;2022-10-22T10:22:01;16.90;1.00
12438;DHT22;6283;51.330;12.374;2022-10-22T10:27:34;17.10;1.00
12438;DHT22;6283;51.330;12.374;2022-10-22T10:30:08;17.20;1.00
12438;DHT22;6283;51.330;12.374;2022-10-22T10:32:52;17.30;1.00
12438;DHT22;6283;51.330;12.374;2022-10-22T10:35:27;17.30;1.00
12438;DHT22;6283;51.330;12.374;2022-10-22T10:46:44;17.50;1.00
12438;DHT22;6283;51.330;12.374;2022-10-22T10:49:25;17.50;1.00
12438;DHT22;6283;51.330;12.374;2022-10-22T10:51:52;17.60;1.00
12438;DHT22;6283;51.330;12.374;2022-10-22T10:57:44;17.70;1.00
12438;DHT22;6283;51.330;12.374;2022-10-22T11:00:19;17.80;1.00
12438;DHT22;6283;51.330;12.374;2022-10-22T11:08:34;18.10;1.00
12438;DHT22;6283;51.330;12.374;2022-10-22T11:11:10;18.20;1.00
12438;DHT22;6283;51.330;12.374;2022-10-22T11:22:08;18.80;1.00
12438;DHT22;6283;51.330;12.374;2022-10-22T11:27:37;19.10;1.00
12438;DHT22;6283;51.330;12.374;2022-10-22T11:30:15;19.20;1.00
12438;DHT22;6283;51.330;12.374;2022-10-22T11:32:43;19.30;1.00
12438;DHT22;6283;51.330;12.374;2022-10-22T11:35:23;19.50;1.00
12438;DHT22;6283;51.330;12.374;2022-10-22T11:37:49;19.60;1.00
12438;DHT22;6283;51.330;12.374;2022-10-22T11:50:27;20.00;1.00
12438;DHT22;6283;51.330;12.374;2022-10-22T12:11:35;20.60;1.00
12438;DHT22;6283;51.330;12.374;2022-10-22T12:14:23;20.70;1.00
12438;DHT22;6283;51.330;12.374;2022-10-22T12:17:08;20.40;1.00
12438;DHT22;6283;51.330;12.374;2022-10-22T12:19:59;20.20;1.00
12438;DHT22;6283;51.330;12.374;2022-10-22T12:22:30;20.20;1.00
12438;DHT22;6283;51.330;12.374;2022-10-22T12:25:00;20.10;1.00
12438;DHT22;6283;51.330;12.374;2022-10-22T12:30:02;20.20;1.00
12438;DHT22;6283;51.330;12.374;2022-10-22T12:32:36;20.30;1.00
12438;DHT22;6283;51.330;12.374;2022-10-22T12:35:10;20.60;1.00
12438;DHT22;6283;51.330;12.374;2022-10-22T12:37:38;20.90;1.00
12438;DHT22;6283;51.330;12.374;2022-10-22T12:40:22;21.10;1.00
12438;DHT22;6283;51.330;12.374;2022-10-22T12:42:53;21.10;1.00
12438;DHT22;6283;51.330;12.374;2022-10-22T12:45:20;21.00;1.00
12438;DHT22;6283;51.330;12.374;2022-10-22T12:47:50;21.00;1.00
12438;DHT22;6283;51.330;12.374;2022-10-22T12:50:30;20.90;1.00
12438;DHT22;6283;51.330;12.374;2022-10-22T12:52:57;21.00;1.00
12438;DHT22;6283;51.330;12.374;2022-10-22T12:55:24;21.00;1.00
12438;DHT22;6283;51.330;12.374;2022-10-22T12:57:51;20.80;1.00
12438;DHT22;6283;51.330;12.374;2022-10-22T13:00:22;20.50;1.00
12438;DHT22;6283;51.330;12.374;2022-10-22T13:02:49;20.30;1.00
12438;DHT22;6283;51.330;12.374;2022-10-22T13:05:25;20.20;1.00
12438;DHT22;6283;51.330;12.374;2022-10-22T13:08:16;20.40;1.00
12438;DHT22;6283;51.330;12.374;2022-10-22T13:10:49;20.70;1.00
12438;DHT22;6283;51.330;12.374;2022-10-22T13:13:33;20.90;1.00
12438;DHT22;6283;51.330;12.374;2022-10-22T13:16:21;21.20;1.00
12438;DHT22;6283;51.330;12.374;2022-10-22T13:18:49;21.50;1.00
12438;DHT22;6283;51.330;12.374;2022-10-22T13:21:25;21.70;1.00
12438;DHT22;6283;51.330;12.374;2022-10-22T13:23:59;21.80;1.00
12438;DHT22;6283;51.330;12.374;2022-10-22T13:26:36;21.90;1.00
12438;DHT22;6283;51.330;12.374;2022-10-22T13:29:09;22.00;1.00
12438;DHT22;6283;51.330;12.374;2022-10-22T13:31:35;22.10;1.00
12438;DHT22;6283;51.330;12.374;2022-10-22T13:34:05;22.10;1.00
12438;DHT22;6283;51.330;12.374;2022-10-22T13:36:34;21.90;1.00
12438;DHT22;6283;51.330;12.374;2022-10-22T13:39:01;21.70;1.00
12438;DHT22;6283;51.330;12.374;2022-10-22T13:41:29;21.40;1.00
12438;DHT22;6283;51.330;12.374;2022-10-22T13:43:56;21.10;1.00
12438;DHT22;6283;51.330;12.374;2022-10-22T13:46:23;21.10;1.00
12438;DHT22;6283;51.330;12.374;2022-10-22T13:48:52;21.20;1.00
12438;DHT22;6283;51.330;12.374;2022-10-22T13:51:23;21.30;1.00
12438;DHT22;6283;51.330;12.374;2022-10-22T13:53:50;21.50;1.00
12438;DHT22;6283;51.330;12.374;2022-10-22T13:56:19;21.70;1.00
12438;DHT22;6283;51.330;12.374;2022-10-22T13:58:46;22.00;1.00
12438;DHT22;6283;51.330;12.374;2022-10-22T14:01:27;22.20;1.00
12438;DHT22;6283;51.330;12.374;2022-10-22T14:03:55;22.30;1.00
12438;DHT22;6283;51.330;12.374;2022-10-22T14:06:23;22.30;1.00
12438;DHT22;6283;51.330;12.374;2022-10-22T14:08:56;22.40;1.00
12438;DHT22;6283;51.330;12.374;2022-10-22T14:11:23;22.20;1.00
12438;DHT22;6283;51.330;12.374;2022-10-22T14:13:49;22.10;1.00
12438;DHT22;6283;51.330;12.374;2022-10-22T14:16:20;21.70;1.00
12438;DHT22;6283;51.330;12.374;2022-10-22T14:18:46;21.50;1.00
12438;DHT22;6283;51.330;12.374;2022-10-22T14:21:13;21.20;1.00
12438;DHT22;6283;51.330;12.374;2022-10-22T14:23:40;21.00;1.00
12438;DHT22;6283;51.330;12.374;2022-10-22T14:26:07;20.80;1.00
12438;DHT22;6283;51.330;12.374;2022-10-22T14:28:34;20.70;1.00
12438;DHT22;6283;51.330;12.374;2022-10-22T14:31:00;20.60;1.00
12438;DHT22;6283;51.330;12.374;2022-10-22T14:33:28;20.60;1.00
12438;DHT22;6283;51.330;12.374;2022-10-22T14:35:54;20.70;1.00
12438;DHT22;6283;51.330;12.374;2022-10-22T14:38:20;21.00;1.00
12438;DHT22;6283;51.330;12.374;2022-10-22T14:40:46;21.30;1.00
12438;DHT22;6283;51.330;12.374;2022-10-22T14:45:40;22.00;1.00
12438;DHT22;6283;51.330;12.374;2022-10-22T14:48:06;22.40;1.00
12438;DHT22;6283;51.330;12.374;2022-10-22T14:50:32;22.50;1.00
12438;DHT22;6283;51.330;12.374;2022-10-22T14:52:58;22.50;1.00
12438;DHT22;6283;51.330;12.374;2022-10-22T14:55:24;22.30;1.00
12438;DHT22;6283;51.330;12.374;2022-10-22T14:57:51;22.20;1.00
12438;DHT22;6283;51.330;12.374;2022-10-22T15:00:18;22.20;1.00
12438;DHT22;6283;51.330;12.374;2022-10-22T15:02:44;22.00;1.00
12438;DHT22;6283;51.330;12.374;2022-10-22T15:05:10;22.00;1.00
12438;DHT22;6283;51.330;12.374;2022-10-22T15:07:37;21.90;1.00
12438;DHT22;6283;51.330;12.374;2022-10-22T15:10:04;21.70;1.00
12438;DHT22;6283;51.330;12.374;2022-10-22T15:12:30;21.40;1.00
12438;DHT22;6283;51.330;12.374;2022-10-22T15:14:55;21.10;1.00
12438;DHT22;6283;51.330;12.374;2022-10-22T15:17:21;20.80;1.00
12438;DHT22;6283;51.330;12.374;2022-10-22T15:19:47;20.60;1.00
12438;DHT22;6283;51.330;12.374;2022-10-22T15:22:13;20.50;1.00
12438;DHT22;6283;51.330;12.374;2022-10-22T15:24:40;20.30;1.00
12438;DHT22;6283;51.330;12.374;2022-10-22T15:27:09;20.20;1.00
12438;DHT22;6283;51.330;12.374;2022-10-22T15:29:35;20.20;1.00
12438;DHT22;6283;51.330;12.374;2022-10-22T15:32:00;20.30;1.00
12438;DHT22;6283;51.330;12.374;2022-10-22T15:34:31;20.50;1.00
12438;DHT22;6283;51.330;12.374;2022-10-22T15:37:01;20.50;1.00
12438;DHT22;6283;51.330;12.374;2022-10-22T15:39:27;20.50;1.00
12438;DHT22;6283;51.330;12.374;2022-10-22T15:41:53;20.30;1.00
12438;DHT22;6283;51.330;12.374;2022-10-22T15:44:28;20.20;1.00
12438;DHT22;6283;51.330;12.374;2022-10-22T15:46:54;20.00;1.00
12438;DHT22;6283;51.330;12.374;2022-10-22T15:49:21;19.80;1.00
12438;DHT22;6283;51.330;12.374;2022-10-22T15:51:47;19.60;1.00
12438;DHT22;6283;51.330;12.374;2022-10-22T15:54:16;19.40;1.00
12438;DHT22;6283;51.330;12.374;2022-10-22T15:56:43;19.10;1.00
12438;DHT22;6283;51.330;12.374;2022-10-22T15:59:10;18.90;1.00
12438;DHT22;6283;51.330;12.374;2022-10-22T16:01:36;18.80;1.00
12438;DHT22;6283;51.330;12.374;2022-10-22T16:04:02;18.60;1.00
12438;DHT22;6283;51.330;12.374;2022-10-22T16:09:24;18.30;1.00
12438;DHT22;6283;51.330;12.374;2022-10-22T16:11:51;18.20;1.00
12438;DHT22;6283;51.330;12.374;2022-10-22T16:14:18;18.10;1.00
12438;DHT22;6283;51.330;12.374;2022-10-22T16:16:47;18.00;1.00
12438;DHT22;6283;51.330;12.374;2022-10-22T16:19:14;17.90;1.00
12438;DHT22;6283;51.330;12.374;2022-10-22T16:21:40;17.90;1.00
12438;DHT22;6283;51.330;12.374;2022-10-22T16:24:07;17.80;1.00
12438;DHT22;6283;51.330;12.374;2022-10-22T16:26:33;17.80;1.00
12438;DHT22;6283;51.330;12.374;2022-10-22T16:28:59;17.80;1.00
12438;DHT22;6283;51.330;12.374;2022-10-22T16:31:25;17.80;1.00
12438;DHT22;6283;51.330;12.374;2022-10-22T16:33:50;17.80;1.00
12438;DHT22;6283;51.330;12.374;2022-10-22T16:36:17;17.70;1.00
12438;DHT22;6283;51.330;12.374;2022-10-22T16:38:47;17.70;1.00
12438;DHT22;6283;51.330;12.374;2022-10-22T16:41:15;17.70;1.00
12438;DHT22;6283;51.330;12.374;2022-10-22T16:43:42;17.70;1.00
12438;DHT22;6283;51.330;12.374;2022-10-22T16:46:08;17.60;1.00
12438;DHT22;6283;51.330;12.374;2022-10-22T16:48:34;17.60;1.00
12438;DHT22;6283;51.330;12.374;2022-10-22T16:51:08;17.50;1.00
12438;DHT22;6283;51.330;12.374;2022-10-22T16:53:34;17.40;1.00
12438;DHT22;6283;51.330;12.374;2022-10-22T16:56:00;17.30;1.00
12438;DHT22;6283;51.330;12.374;2022-10-22T16:58:26;17.10;1.00
12438;DHT22;6283;51.330;12.374;2022-10-22T17:00:51;17.10;1.00
12438;DHT22;6283;51.330;12.374;2022-10-22T17:03:17;17.00;1.00
12438;DHT22;6283;51.330;12.374;2022-10-22T17:05:42;16.90;1.00
12438;DHT22;6283;51.330;12.374;2022-10-22T17:08:08;16.80;1.00
12438;DHT22;6283;51.330;12.374;2022-10-22T17:10:35;16.70;1.00
12438;DHT22;6283;51.330;12.374;2022-10-22T17:13:01;16.70;1.00
12438;DHT22;6283;51.330;12.374;2022-10-22T17:15:27;16.60;1.00
12438;DHT22;6283;51.330;12.374;2022-10-22T17:17:53;16.50;1.00
12438;DHT22;6283;51.330;12.374;2022-10-22T17:20:19;16.50;1.00
12438;DHT22;6283;51.330;12.374;2022-10-22T17:22:45;16.50;1.00
12438;DHT22;6283;51.330;12.374;2022-10-22T17:25:15;16.50;1.00
12438;DHT22;6283;51.330;12.374;2022-10-22T17:27:42;16.50;1.00
12438;DHT22;6283;51.330;12.374;2022-10-22T17:30:13;16.50;1.00
12438;DHT22;6283;51.330;12.374;2022-10-22T17:32:39;16.60;1.00
12438;DHT22;6283;51.330;12.374;2022-10-22T17:35:06;16.60;1.00
12438;DHT22;6283;51.330;12.374;2022-10-22T17:37:33;16.60;1.00
12438;DHT22;6283;51.330;12.374;2022-10-22T17:39:59;16.50;1.00